Time;durP1;ratioP1;P1;durP2;ratioP2;P2;SDS_P1;SDS_P2;PMS_P1;PMS_P2;Temp;Humidity;BMP_temperature;BMP_pressure;BME280_temperature;BME280_humidity;BME280_pressure;Samples;Min_cycle;Max_cycle;Signal;HPM_P1;HPM_P2
2021/08/12 00:00:05;;;;;;;6.70;6.10;;;;;;;16.86;67.55;101653.94;678367;29;11305;-68
2021/08/12 00:00:26;;;;;;;6.80;6.20;;;;;;;16.86;67.51;101650.38;677297;29;46477;-68
2021/08/12 00:00:49;;;;;;;6.88;6.30;;;;;;;16.84;67.42;101653.28;674840;29;21749;-68
2021/08/12 00:01:10;;;;;;;6.60;6.10;;;;;;;16.83;67.42;101650.75;673452;29;67743;-69
2021/08/12 00:01:31;;;;;;;6.80;6.20;;;;;;;16.82;67.52;101649.91;674859;29;21545;-69
2021/08/12 00:01:52;;;;;;;6.40;5.90;;;;;;;16.82;67.47;101654.50;675262;29;22215;-68
2021/08/12 00:02:14;;;;;;;6.22;5.72;;;;;;;16.78;67.61;101655.94;674464;29;21536;-69
2021/08/12 00:02:36;;;;;;;6.88;6.18;;;;;;;16.78;67.67;101647.78;674552;29;45292;-69
2021/08/12 00:02:57;;;;;;;7.30;6.20;;;;;;;16.76;67.68;101650.69;677058;29;46357;-67
2021/08/12 00:03:19;;;;;;;6.82;6.00;;;;;;;16.76;67.71;101647.97;677684;29;22426;-69
2021/08/12 00:03:40;;;;;;;6.30;5.80;;;;;;;16.76;67.84;101651.53;676957;29;46365;-68
2021/08/12 00:04:01;;;;;;;6.45;5.93;;;;;;;16.74;67.86;101656.34;677274;29;19857;-68
2021/08/12 00:04:22;;;;;;;6.70;6.10;;;;;;;16.73;67.84;101645.63;677664;29;22387;-68
2021/08/12 00:04:44;;;;;;;6.57;6.05;;;;;;;16.73;67.77;101648.34;677734;29;23435;-67
2021/08/12 00:05:07;;;;;;;6.80;6.10;;;;;;;16.73;67.80;101651.91;676970;29;46035;-68
2021/08/12 00:05:28;;;;;;;6.65;5.95;;;;;;;16.71;67.77;101654.00;674429;29;46305;-68
2021/08/12 00:05:50;;;;;;;6.70;6.10;;;;;;;16.71;67.96;101655.91;675919;29;21534;-69
2021/08/12 00:06:11;;;;;;;6.60;6.10;;;;;;;16.69;67.82;101652.50;675282;29;44417;-67
2021/08/12 00:06:32;;;;;;;6.63;6.03;;;;;;;16.68;67.71;101657.13;676638;29;4107;-68
2021/08/12 00:06:53;;;;;;;6.70;6.10;;;;;;;16.67;67.86;101657.31;676013;29;24343;-68
2021/08/12 00:07:15;;;;;;;6.50;5.93;;;;;;;16.66;68.14;101653.75;675923;29;21553;-68
2021/08/12 00:07:36;;;;;;;6.30;5.70;;;;;;;16.66;68.11;101645.56;676575;29;46013;-64
2021/08/12 00:07:57;;;;;;;5.75;5.30;;;;;;;16.66;68.17;101650.16;677598;29;23944;-68
2021/08/12 00:08:19;;;;;;;6.18;5.68;;;;;;;16.61;68.25;101642.56;676835;29;46250;-68
2021/08/12 00:08:40;;;;;;;6.65;6.05;;;;;;;16.66;67.94;101652.88;677181;29;46264;-68
2021/08/12 00:09:02;;;;;;;6.38;5.88;;;;;;;16.65;67.99;101654.78;677947;29;11679;-67
2021/08/12 00:09:23;;;;;;;6.68;5.97;;;;;;;16.64;67.99;101653.09;677967;29;12556;-68
2021/08/12 00:09:45;;;;;;;6.32;5.72;;;;;;;16.63;68.21;101656.88;678262;29;5942;-68
2021/08/12 00:10:07;;;;;;;6.10;5.55;;;;;;;16.63;68.21;101656.00;677883;29;20297;-68
2021/08/12 00:10:28;;;;;;;6.35;5.85;;;;;;;16.63;68.19;101654.16;676329;29;46263;-65
2021/08/12 00:10:50;;;;;;;6.45;5.85;;;;;;;16.63;68.25;101654.16;678361;29;12509;-69
2021/08/12 00:11:12;;;;;;;6.18;5.63;;;;;;;16.63;68.37;101651.41;677523;29;31111;-68
2021/08/12 00:11:33;;;;;;;6.00;5.40;;;;;;;16.63;68.23;101659.59;677035;29;42632;-68
2021/08/12 00:11:57;;;;;;;6.15;5.55;;;;;;;16.64;68.36;101652.25;678601;29;920;-69
2021/08/12 00:12:18;;;;;;;6.25;5.63;;;;;;;16.65;68.25;101653.94;675409;29;70363;-68
2021/08/12 00:12:40;;;;;;;7.75;5.90;;;;;;;16.64;68.10;101646.78;677883;29;23427;-69
2021/08/12 00:13:01;;;;;;;6.55;5.85;;;;;;;16.64;68.04;101653.09;677212;29;28726;-69
2021/08/12 00:13:22;;;;;;;6.60;5.90;;;;;;;16.63;68.12;101650.56;677881;29;22432;-68
2021/08/12 00:13:43;;;;;;;6.13;5.53;;;;;;;16.62;68.13;101655.19;677478;29;23526;-67
2021/08/12 00:14:06;;;;;;;7.05;5.82;;;;;;;16.61;68.21;101653.47;678368;29;7503;-68
2021/08/12 00:14:27;;;;;;;6.65;5.53;;;;;;;16.60;68.15;101659.13;676088;29;69464;-68
2021/08/12 00:14:48;;;;;;;6.25;5.70;;;;;;;16.59;68.15;101650.09;677955;29;23493;-66
2021/08/12 00:15:10;;;;;;;6.50;5.90;;;;;;;16.58;68.31;101654.72;677227;29;23529;-68
2021/08/12 00:15:31;;;;;;;6.30;5.75;;;;;;;16.58;68.13;101653.88;676930;29;31381;-69
2021/08/12 00:15:53;;;;;;;8.05;5.95;;;;;;;16.57;68.27;101655.75;677129;29;21597;-68
2021/08/12 00:16:15;;;;;;;7.60;6.00;;;;;;;16.57;68.20;101658.47;677035;29;45941;-66
2021/08/12 00:16:36;;;;;;;6.57;5.97;;;;;;;16.57;68.17;101655.75;676982;29;46397;-66
2021/08/12 00:16:57;;;;;;;6.20;5.65;;;;;;;16.56;68.33;101655.94;677402;29;22409;-68
2021/08/12 00:17:18;;;;;;;6.53;5.82;;;;;;;16.50;68.11;101649.38;677699;29;21537;-68
2021/08/12 00:17:41;;;;;;;6.18;5.55;;;;;;;16.56;68.24;101655.94;677582;29;13391;-68
2021/08/12 00:18:03;;;;;;;7.10;5.95;;;;;;;16.55;68.24;101660.56;676343;29;67474;-67
2021/08/12 00:18:24;;;;;;;6.43;5.60;;;;;;;16.55;68.00;101654.25;676875;29;45282;-67
2021/08/12 00:18:52;;;;;;;6.38;5.78;;;;;;;16.54;68.17;101650.69;678166;29;4451;-68
2021/08/12 00:19:13;;;;;;;6.45;5.85;;;;;;;16.52;68.06;101652.78;674129;29;129500;-68
2021/08/12 00:19:34;;;;;;;6.30;5.75;;;;;;;16.53;68.28;101664.53;677743;29;20430;-69
2021/08/12 00:19:56;;;;;;;6.93;6.00;;;;;;;16.51;68.23;101652.97;677688;29;22405;-68
2021/08/12 00:20:18;;;;;;;6.47;5.88;;;;;;;16.49;68.31;101655.03;676919;29;46387;-68
2021/08/12 00:20:39;;;;;;;6.68;6.00;;;;;;;16.49;68.38;101655.03;677355;29;22397;-68
2021/08/12 00:21:01;;;;;;;6.82;6.20;;;;;;;16.49;68.12;101655.03;677071;29;46425;-68
2021/08/12 00:21:22;;;;;;;6.95;6.30;;;;;;;16.48;68.34;101659.66;676915;29;46353;-68
2021/08/12 00:21:44;;;;;;;7.30;5.95;;;;;;;16.46;68.25;101656.28;677688;29;22243;-67
2021/08/12 00:22:06;;;;;;;6.15;5.47;;;;;;;16.46;68.27;101655.44;677673;29;22416;-68
2021/08/12 00:22:27;;;;;;;6.93;5.90;;;;;;;16.43;68.41;101653.94;676877;29;45258;-67
2021/08/12 00:22:48;;;;;;;6.75;6.10;;;;;;;16.40;68.38;101652.44;677678;29;23450;-65
2021/08/12 00:23:09;;;;;;;6.78;6.10;;;;;;;16.43;68.42;101653.09;677910;29;23482;-69
2021/08/12 00:23:31;;;;;;;6.88;6.13;;;;;;;16.41;68.67;101650.56;676569;29;45287;-67
2021/08/12 00:23:53;;;;;;;7.38;6.00;;;;;;;16.42;68.58;101659.59;674253;29;34553;-68
2021/08/12 00:24:14;;;;;;;6.47;5.90;;;;;;;16.41;68.63;101661.47;675006;29;17971;-69
2021/08/12 00:24:35;;;;;;;6.35;5.85;;;;;;;16.40;68.75;101654.31;674501;29;22402;-68
2021/08/12 00:24:57;;;;;;;6.70;6.00;;;;;;;16.41;68.63;101656.03;674695;29;22424;-66
2021/08/12 00:25:18;;;;;;;6.55;5.97;;;;;;;16.41;68.79;101658.75;673952;29;42043;-66
2021/08/12 00:25:39;;;;;;;7.05;6.35;;;;;;;16.42;68.81;101651.41;674337;29;25150;-68
2021/08/12 00:26:01;;;;;;;6.85;6.15;;;;;;;16.39;68.62;101652.63;678102;29;4072;-67
2021/08/12 00:26:22;;;;;;;6.70;6.13;;;;;;;16.43;68.80;101650.38;676313;29;46331;-67
2021/08/12 00:26:43;;;;;;;7.07;6.45;;;;;;;16.43;68.67;101662.13;678024;29;22497;-68
2021/08/12 00:27:05;;;;;;;7.82;6.18;;;;;;;16.43;68.88;101653.94;677456;29;23298;-67
2021/08/12 00:27:27;;;;;;;6.80;6.10;;;;;;;16.42;68.56;101654.13;676048;29;19714;-66
2021/08/12 00:27:48;;;;;;;6.63;5.97;;;;;;;16.44;68.83;101649.31;674859;29;34106;-67
2021/08/12 00:28:09;;;;;;;6.43;5.93;;;;;;;16.44;68.57;101652.03;676204;29;17259;-67
2021/08/12 00:28:30;;;;;;;6.53;5.97;;;;;;;16.43;68.77;101651.22;675369;29;45227;-67
2021/08/12 00:28:51;;;;;;;7.35;6.03;;;;;;;16.45;68.84;101654.56;672828;29;46473;-69
2021/08/12 00:29:14;;;;;;;6.82;6.22;;;;;;;16.46;68.75;101664.47;673649;29;21330;-68
2021/08/12 00:29:35;;;;;;;6.70;6.13;;;;;;;16.47;68.53;101659.84;674489;29;42315;-68
2021/08/12 00:29:56;;;;;;;6.28;5.72;;;;;;;16.47;68.63;101657.94;674926;29;22550;-68
2021/08/12 00:30:19;;;;;;;6.45;5.85;;;;;;;16.48;68.41;101659.66;670735;29;46775;-68
2021/08/12 00:30:40;;;;;;;8.05;6.22;;;;;;;16.47;68.56;101657.94;668831;29;46396;-67
2021/08/12 00:31:02;;;;;;;6.68;6.07;;;;;;;16.50;68.39;101659.44;669370;29;46337;-69
2021/08/12 00:31:23;;;;;;;6.57;5.97;;;;;;;16.48;68.49;101654.19;667246;29;22262;-69
2021/08/12 00:31:47;;;;;;;6.68;6.07;;;;;;;16.47;68.53;101652.50;667963;29;23788;-66
2021/08/12 00:32:08;;;;;;;6.70;6.10;;;;;;;16.47;68.54;101663.41;668855;29;31310;-67
2021/08/12 00:32:29;;;;;;;6.40;5.88;;;;;;;16.48;68.40;101658.81;670203;29;22215;-68
2021/08/12 00:32:53;;;;;;;6.40;5.90;;;;;;;16.45;68.36;101654.56;672064;29;908;-67
2021/08/12 00:33:14;;;;;;;6.15;5.65;;;;;;;16.46;68.50;101652.72;670635;29;92336;-68
2021/08/12 00:33:35;;;;;;;6.20;5.60;;;;;;;16.47;68.29;101657.94;674279;29;23439;-68
2021/08/12 00:33:56;;;;;;;6.65;5.65;;;;;;;16.46;68.31;101655.44;673305;29;22524;-67
2021/08/12 00:34:17;;;;;;;6.25;5.68;;;;;;;16.45;68.23;101657.31;673494;29;21481;-69
2021/08/12 00:34:40;;;;;;;6.20;5.70;;;;;;;16.43;68.47;101659.38;672745;29;18484;-68
2021/08/12 00:35:01;;;;;;;6.32;5.72;;;;;;;16.43;68.27;101656.66;673186;29;45269;-68
2021/08/12 00:35:22;;;;;;;6.40;5.78;;;;;;;16.43;68.23;101653.09;674363;29;21070;-66
2021/08/12 00:35:45;;;;;;;6.68;6.00;;;;;;;16.41;68.17;101653.28;674600;29;37419;-67
2021/08/12 00:36:08;;;;;;;6.40;5.80;;;;;;;16.40;68.39;101655.16;673574;29;54136;-66
2021/08/12 00:36:29;;;;;;;6.30;5.80;;;;;;;16.41;68.46;101656.03;674326;29;44424;-68
2021/08/12 00:36:52;;;;;;;6.25;5.75;;;;;;;16.41;68.53;101656.03;671037;29;69464;-69
2021/08/12 00:37:14;;;;;;;6.63;5.93;;;;;;;16.40;68.35;101657.88;669945;29;22413;-67
2021/08/12 00:37:36;;;;;;;6.22;5.72;;;;;;;16.39;68.49;101658.94;666418;29;68378;-64
2021/08/12 00:37:58;;;;;;;6.22;5.78;;;;;;;16.40;68.41;101657.88;666966;29;45236;-69
2021/08/12 00:38:20;;;;;;;6.25;5.70;;;;;;;16.39;68.42;101658.94;668482;29;1682;-68
2021/08/12 00:38:42;;;;;;;6.35;5.63;;;;;;;16.39;68.36;101663.53;667452;29;46320;-68
2021/08/12 00:39:04;;;;;;;6.38;5.80;;;;;;;16.39;68.47;101652.63;665344;29;33942;-68
2021/08/12 00:39:27;;;;;;;7.03;5.90;;;;;;;16.39;68.51;101658.06;667921;29;54698;-68
2021/08/12 00:39:50;;;;;;;6.93;6.10;;;;;;;16.40;68.30;101660.59;667286;29;67299;-68
2021/08/12 00:40:14;;;;;;;6.72;6.13;;;;;;;16.39;68.40;101655.34;668717;29;63304;-69
2021/08/12 00:40:35;;;;;;;6.90;6.20;;;;;;;16.38;68.58;101659.13;668329;29;54855;-68
2021/08/12 00:40:57;;;;;;;6.30;5.78;;;;;;;16.38;68.54;101659.97;667137;29;45275;-68
2021/08/12 00:41:20;;;;;;;6.32;5.72;;;;;;;16.36;68.30;101655.72;669020;29;46437;-68
2021/08/12 00:41:42;;;;;;;6.03;5.53;;;;;;;16.38;68.53;101664.59;672278;29;21544;-68
2021/08/12 00:42:06;;;;;;;6.53;5.82;;;;;;;16.37;68.53;101660.16;669209;29;136788;-68
2021/08/12 00:42:28;;;;;;;6.20;5.60;;;;;;;16.37;68.39;101651.97;672118;29;45295;-67
2021/08/12 00:42:49;;;;;;;6.53;5.93;;;;;;;16.37;68.47;101660.16;675941;29;23493;-68
2021/08/12 00:43:11;;;;;;;6.20;5.70;;;;;;;16.38;68.38;101657.25;671542;29;46302;-68
2021/08/12 00:43:33;;;;;;;6.13;5.63;;;;;;;16.37;68.33;101663.72;668293;29;69717;-66
2021/08/12 00:43:54;;;;;;;6.13;5.63;;;;;;;16.36;68.52;101663.91;666850;29;46364;-68
2021/08/12 00:44:17;;;;;;;6.22;5.63;;;;;;;16.34;68.46;101655.94;666989;29;69463;-68
2021/08/12 00:44:40;;;;;;;6.47;5.88;;;;;;;16.37;68.40;101662.88;665961;29;22393;-67
2021/08/12 00:45:04;;;;;;;6.55;5.95;;;;;;;16.36;68.53;101664.78;664358;29;92337;-67
2021/08/12 00:45:25;;;;;;;5.93;5.43;;;;;;;16.35;68.40;101660.34;667191;29;46419;-67
2021/08/12 00:45:46;;;;;;;6.20;5.70;;;;;;;16.36;68.47;101661.19;667339;29;30362;-68
2021/08/12 00:46:09;;;;;;;6.85;5.80;;;;;;;16.35;68.37;101659.53;668277;29;4101;-67
2021/08/12 00:46:31;;;;;;;8.63;6.05;;;;;;;16.35;68.19;101662.25;666921;29;90622;-69
2021/08/12 00:46:53;;;;;;;6.72;6.10;;;;;;;16.33;68.44;101662.44;671389;29;22264;-68
2021/08/12 00:47:14;;;;;;;6.57;5.97;;;;;;;16.33;68.52;101659.72;671062;29;22851;-68
2021/08/12 00:47:38;;;;;;;6.18;5.68;;;;;;;16.33;68.55;101664.28;669622;29;68125;-68
2021/08/12 00:48:00;;;;;;;8.77;5.82;;;;;;;16.33;68.55;101661.56;673449;29;45315;-69
2021/08/12 00:48:21;;;;;;;6.32;5.70;;;;;;;16.33;68.83;101661.56;673063;29;46349;-68
2021/08/12 00:48:43;;;;;;;6.18;5.68;;;;;;;16.32;68.63;101666.19;671317;29;44106;-67
2021/08/12 00:49:05;;;;;;;6.70;6.10;;;;;;;16.32;68.43;101662.63;672730;29;8366;-68
2021/08/12 00:49:27;;;;;;;6.30;5.65;;;;;;;16.31;68.39;101664.50;672585;29;61935;-66
2021/08/12 00:49:49;;;;;;;7.57;6.00;;;;;;;16.31;68.38;101666.38;673819;29;46263;-66
2021/08/12 00:50:11;;;;;;;6.47;5.85;;;;;;;16.31;68.56;101658.19;676831;29;22295;-68
2021/08/12 00:50:35;;;;;;;7.00;5.45;;;;;;;16.31;68.44;101663.66;674040;29;49427;-65
2021/08/12 00:50:58;;;;;;;6.18;5.57;;;;;;;16.31;68.34;101666.38;668398;29;115189;-67
2021/08/12 00:51:19;;;;;;;6.53;5.82;;;;;;;16.32;68.49;101665.34;672124;29;22338;-67
2021/08/12 00:51:40;;;;;;;6.40;5.80;;;;;;;16.29;68.44;101666.56;672612;29;23500;-68
2021/08/12 00:52:03;;;;;;;6.38;5.85;;;;;;;16.31;68.36;101667.22;670928;29;22207;-68
2021/08/12 00:52:27;;;;;;;6.32;5.72;;;;;;;16.31;68.38;101667.22;667594;29;60684;-67
2021/08/12 00:52:50;;;;;;;6.82;6.10;;;;;;;16.31;68.45;101666.38;669482;29;69461;-68
2021/08/12 00:53:12;;;;;;;6.35;5.80;;;;;;;16.31;68.56;101667.22;672635;29;15235;-67
2021/08/12 00:53:35;;;;;;;6.00;5.50;;;;;;;16.31;68.27;101669.94;670317;29;69472;-69
2021/08/12 00:54:00;;;;;;;6.47;5.70;;;;;;;16.31;68.39;101669.09;673293;29;39720;-69
2021/08/12 00:54:22;;;;;;;6.28;5.72;;;;;;;16.30;68.48;101661.97;672254;29;88494;-68
2021/08/12 00:54:45;;;;;;;6.10;5.60;;;;;;;16.31;68.28;101672.66;672732;29;45223;-68
2021/08/12 00:55:08;;;;;;;6.20;5.60;;;;;;;16.31;68.26;101666.38;672483;29;46491;-68
2021/08/12 00:55:30;;;;;;;6.38;5.85;;;;;;;16.30;68.30;101661.97;668226;29;92131;-67
2021/08/12 00:55:51;;;;;;;6.32;5.82;;;;;;;16.29;68.20;101661.13;670977;29;21439;-67
2021/08/12 00:56:14;;;;;;;5.93;5.45;;;;;;;16.29;68.36;101668.47;669171;29;46456;-68
2021/08/12 00:56:36;;;;;;;6.28;5.68;;;;;;;16.30;68.47;101667.41;667975;29;46783;-68
2021/08/12 00:56:57;;;;;;;6.63;6.03;;;;;;;16.30;68.29;101665.53;667536;29;46441;-67
2021/08/12 00:57:19;;;;;;;7.38;5.60;;;;;;;16.29;68.48;101672.03;668244;29;1781;-68
2021/08/12 00:57:42;;;;;;;6.05;5.20;;;;;;;16.29;68.35;101665.75;666260;29;46438;-67
2021/08/12 00:58:04;;;;;;;6.25;5.65;;;;;;;16.24;68.38;101658.13;667716;29;46344;-67
2021/08/12 00:58:25;;;;;;;6.88;6.18;;;;;;;16.25;68.51;101659.81;667875;29;45262;-66
2021/08/12 00:58:48;;;;;;;6.63;5.93;;;;;;;16.27;68.50;101671.38;671190;29;47532;-67
2021/08/12 00:59:10;;;;;;;7.03;5.88;;;;;;;16.24;68.53;101663.59;670503;29;22584;-66
2021/08/12 00:59:35;;;;;;;6.30;5.80;;;;;;;16.27;68.34;101665.06;671936;29;9933;-66
2021/08/12 00:59:56;;;;;;;6.40;5.80;;;;;;;16.27;68.53;101665.06;669188;29;111354;-68
2021/08/12 01:00:19;;;;;;;6.33;5.70;;;;;;;16.27;68.32;101662.34;668765;29;69526;-68
2021/08/12 01:00:40;;;;;;;6.30;5.65;;;;;;;16.27;68.61;101665.94;669969;29;46576;-69
2021/08/12 01:01:02;;;;;;;6.30;5.80;;;;;;;16.26;68.38;101669.69;668960;29;39093;-68
2021/08/12 01:01:24;;;;;;;6.43;5.80;;;;;;;16.26;68.49;101658.78;667754;29;46347;-69
2021/08/12 01:01:46;;;;;;;6.40;5.80;;;;;;;16.26;68.33;101661.50;667283;29;40521;-66
2021/08/12 01:02:08;;;;;;;6.60;6.00;;;;;;;16.26;68.30;101666.97;668680;29;23498;-68
2021/08/12 01:02:31;;;;;;;6.43;5.82;;;;;;;16.27;68.32;101656.88;665111;29;69474;-68
2021/08/12 01:02:52;;;;;;;6.22;5.70;;;;;;;16.26;68.60;101657.94;667509;29;32638;-68
2021/08/12 01:03:16;;;;;;;6.00;5.50;;;;;;;16.27;68.35;101656.88;668456;29;11324;-68
2021/08/12 01:03:38;;;;;;;6.03;5.53;;;;;;;16.25;68.33;101659.81;665981;29;129338;-68
2021/08/12 01:04:01;;;;;;;6.15;5.55;;;;;;;16.24;68.37;101657.28;668807;29;14745;-68
2021/08/12 01:04:22;;;;;;;6.13;5.57;;;;;;;16.24;68.38;101666.31;667220;29;67557;-68
2021/08/12 01:04:46;;;;;;;6.60;6.00;;;;;;;16.22;68.42;101671.09;667009;29;67231;-66
2021/08/12 01:05:09;;;;;;;6.55;5.90;;;;;;;16.20;68.30;101654.94;666020;29;45429;-67
2021/08/12 01:05:34;;;;;;;7.05;6.10;;;;;;;16.23;68.47;101661.88;664435;29;106545;-68
2021/08/12 01:05:56;;;;;;;6.63;5.85;;;;;;;16.22;68.37;101660.19;665588;29;69572;-68
2021/08/12 01:06:22;;;;;;;6.93;6.22;;;;;;;16.21;68.25;101664.81;665063;29;57386;-68
2021/08/12 01:06:53;;;;;;;6.25;5.75;;;;;;;16.21;68.56;101663.97;665083;29;65228;-68
2021/08/12 01:07:25;;;;;;;6.32;5.82;;;;;;;16.18;68.51;101651.56;661045;29;160136;-68
2021/08/12 01:07:52;;;;;;;9.55;5.97;;;;;;;16.19;68.31;101664.16;662073;29;133136;-67
2021/08/12 01:08:24;;;;;;;8.57;6.18;;;;;;;16.18;68.54;101662.47;668409;29;59479;-68
2021/08/12 01:08:54;;;;;;;6.50;5.85;;;;;;;16.17;68.51;101659.94;668779;29;158532;-68
2021/08/12 01:09:24;;;;;;;7.07;6.15;;;;;;;16.17;68.55;101657.19;669288;29;135134;-68
2021/08/12 01:09:50;;;;;;;5.82;5.38;;;;;;;16.12;68.57;101649.59;670729;29;137981;-68
2021/08/12 01:10:18;;;;;;;6.18;5.57;;;;;;;16.13;68.24;101654.03;671408;29;134319;-68
2021/08/12 01:10:44;;;;;;;6.53;5.85;;;;;;;16.15;68.55;101656.56;669013;29;137338;-68
2021/08/12 01:11:16;;;;;;;6.70;5.80;;;;;;;16.14;68.61;101657.59;667724;29;138027;-68
2021/08/12 01:11:41;;;;;;;6.53;5.78;;;;;;;16.13;68.54;101658.63;669162;29;136564;-68
2021/08/12 01:12:06;;;;;;;6.25;5.72;;;;;;;16.13;68.79;101661.38;666750;29;116037;-68
2021/08/12 01:12:32;;;;;;;8.73;6.03;;;;;;;16.13;68.61;101656.75;662917;29;115201;-68
2021/08/12 01:12:58;;;;;;;6.60;6.00;;;;;;;16.12;68.67;101665.13;665420;29;128961;-69
2021/08/12 01:13:30;;;;;;;6.53;5.93;;;;;;;16.11;68.72;101664.28;666713;29;137971;-68
2021/08/12 01:14:08;;;;;;;6.35;5.85;;;;;;;16.10;68.96;101662.59;666852;29;135761;-68
2021/08/12 01:14:37;;;;;;;6.65;6.10;;;;;;;16.09;68.77;101660.06;668639;29;161189;-69
2021/08/12 01:15:01;;;;;;;7.07;6.25;;;;;;;16.08;68.94;101664.66;666985;29;136226;-67
2021/08/12 01:15:25;;;;;;;6.60;6.00;;;;;;;16.09;68.82;101660.88;669791;29;90755;-67
2021/08/12 01:15:51;;;;;;;6.65;5.93;;;;;;;16.09;68.78;101660.06;668076;29;90713;-69
2021/08/12 01:16:13;;;;;;;6.63;6.03;;;;;;;16.08;68.88;101664.66;668347;29;136276;-68
2021/08/12 01:16:38;;;;;;;7.53;6.13;;;;;;;16.09;68.80;101665.50;669092;29;21439;-68
2021/08/12 01:17:02;;;;;;;7.50;6.10;;;;;;;16.09;68.95;101666.34;666610;29;115019;-69
2021/08/12 01:17:33;;;;;;;6.95;6.30;;;;;;;16.08;68.76;101664.66;666904;29;138108;-69
2021/08/12 01:18:05;;;;;;;6.30;5.80;;;;;;;16.08;68.74;101659.22;671049;29;135909;-67
2021/08/12 01:18:33;;;;;;;6.63;6.03;;;;;;;16.06;68.78;101657.72;671802;29;137820;-68
2021/08/12 01:18:58;;;;;;;6.80;6.20;;;;;;;16.05;68.79;101662.31;672695;29;138111;-68
2021/08/12 01:19:49;;;;;;;6.88;6.28;;;;;;;16.03;68.69;101662.50;674205;29;138133;-68
2021/08/12 01:20:47;;;;;;;7.35;5.85;;;;;;;16.03;68.72;101662.50;673479;29;137451;-67
2021/08/12 01:21:15;;;;;;;7.67;6.20;;;;;;;16.02;68.92;101654.53;675067;29;121941;-67
2021/08/12 01:21:48;;;;;;;6.78;6.18;;;;;;;16.01;68.83;101661.84;676300;29;134743;-68
2021/08/12 01:22:11;;;;;;;7.20;6.60;;;;;;;16.01;68.59;101658.28;671683;29;134765;-68
2021/08/12 01:22:38;;;;;;;6.90;6.20;;;;;;;16.01;68.83;101664.56;670493;29;92246;-69
2021/08/12 01:22:59;;;;;;;6.68;6.07;;;;;;;16.00;69.14;101664.75;669825;29;138151;-68
2021/08/12 01:23:22;;;;;;;6.82;6.22;;;;;;;15.99;69.15;101654.91;671948;29;44359;-68
2021/08/12 01:23:46;;;;;;;7.93;6.88;;;;;;;15.98;69.08;101656.75;668971;29;69362;-66
2021/08/12 01:24:10;;;;;;;9.23;6.35;;;;;;;15.98;68.96;101661.38;669129;29;69436;-67
2021/08/12 01:24:42;;;;;;;7.03;6.32;;;;;;;16.00;69.19;101659.31;669466;29;61627;-68
2021/08/12 01:25:09;;;;;;;6.68;6.00;;;;;;;15.99;68.90;101657.63;666829;29;60287;-68
2021/08/12 01:25:35;;;;;;;7.25;6.60;;;;;;;16.00;68.88;101656.56;669932;29;59236;-68
2021/08/12 01:25:59;;;;;;;7.40;6.70;;;;;;;16.00;68.83;101654.72;674322;29;2155;-67
2021/08/12 01:26:23;;;;;;;7.45;6.30;;;;;;;16.00;68.99;101656.56;675512;29;4067;-67
2021/08/12 01:26:47;;;;;;;7.30;6.60;;;;;;;16.01;69.09;101659.09;673623;29;61741;-65
2021/08/12 01:27:11;;;;;;;8.25;6.05;;;;;;;16.02;68.97;101657.25;673687;29;50730;-68
2021/08/12 01:27:36;;;;;;;8.00;6.30;;;;;;;16.00;69.00;101654.72;672346;29;1821;-68
2021/08/12 01:28:02;;;;;;;7.60;6.78;;;;;;;16.02;68.85;101654.53;666672;29;49109;-68
2021/08/12 01:28:28;;;;;;;6.93;6.28;;;;;;;16.01;69.09;101653.66;665823;29;126984;-68
2021/08/12 01:28:51;;;;;;;8.90;6.15;;;;;;;16.02;69.24;101657.25;669485;29;61729;-68
2021/08/12 01:29:16;;;;;;;7.78;6.55;;;;;;;16.01;69.25;101661.84;669219;29;46641;-68
2021/08/12 01:29:45;;;;;;;7.13;6.20;;;;;;;16.03;69.03;101658.91;672909;29;113562;-68
2021/08/12 01:30:09;;;;;;;7.47;6.78;;;;;;;16.02;69.04;101657.25;672320;29;131848;-67
2021/08/12 01:30:37;;;;;;;7.03;6.43;;;;;;;15.98;68.88;101650.47;671662;29;115871;-69
2021/08/12 01:31:09;;;;;;;6.97;6.35;;;;;;;16.02;68.91;101658.09;669089;29;103048;-69
2021/08/12 01:31:47;;;;;;;7.07;6.47;;;;;;;16.03;69.09;101653.47;668348;29;124867;-68
2021/08/12 01:32:11;;;;;;;7.03;6.43;;;;;;;16.03;69.16;101656.19;671104;29;138315;-69
2021/08/12 01:32:35;;;;;;;7.00;6.40;;;;;;;16.03;69.23;101651.63;675034;29;69483;-68
2021/08/12 01:33:14;;;;;;;7.18;6.47;;;;;;;16.04;68.91;101656.00;674391;29;92186;-68
2021/08/12 01:33:42;;;;;;;8.13;6.50;;;;;;;16.06;69.23;101654.97;676514;29;124988;-68
2021/08/12 01:34:08;;;;;;;7.03;6.32;;;;;;;16.07;69.01;101653.97;673728;29;129039;-68
2021/08/12 01:34:47;;;;;;;7.35;6.63;;;;;;;16.08;69.03;101661.94;674258;29;114803;-69
2021/08/12 01:35:10;;;;;;;7.22;6.63;;;;;;;16.07;69.04;101652.06;670561;29;137990;-68
2021/08/12 01:35:36;;;;;;;7.32;6.63;;;;;;;16.08;69.06;101653.75;671959;29;113606;-69
2021/08/12 01:35:59;;;;;;;6.90;6.25;;;;;;;16.09;69.13;101655.44;674024;29;69281;-69
2021/08/12 01:36:21;;;;;;;7.83;6.40;;;;;;;16.09;68.82;101654.59;676078;29;72916;-67
2021/08/12 01:36:43;;;;;;;7.00;6.30;;;;;;;16.10;68.77;101656.31;672816;29;69481;-67
2021/08/12 01:37:04;;;;;;;7.18;6.40;;;;;;;16.09;68.98;101655.44;672628;29;45238;-68
2021/08/12 01:37:32;;;;;;;7.10;6.45;;;;;;;16.08;68.89;101653.75;674411;29;22267;-67
2021/08/12 01:37:58;;;;;;;6.68;6.18;;;;;;;16.10;68.91;101661.75;670612;29;138023;-68
2021/08/12 01:38:24;;;;;;;7.70;6.13;;;;;;;16.09;68.72;101660.88;667745;29;134638;-67
2021/08/12 01:38:48;;;;;;;7.07;6.43;;;;;;;16.08;68.64;101664.66;668320;29;136372;-67
2021/08/12 01:39:15;;;;;;;7.13;6.43;;;;;;;16.06;68.55;101655.81;671225;29;128812;-69
2021/08/12 01:39:38;;;;;;;7.13;6.50;;;;;;;16.04;68.53;101657.91;672819;29;111696;-68
2021/08/12 01:40:02;;;;;;;6.90;6.20;;;;;;;16.04;68.44;101661.47;673127;29;45251;-68
2021/08/12 01:40:28;;;;;;;7.15;6.45;;;;;;;16.03;68.52;101658.91;674511;29;82557;-67
2021/08/12 01:40:51;;;;;;;7.13;6.53;;;;;;;16.01;68.57;101661.00;674616;29;108972;-68
2021/08/12 01:41:13;;;;;;;7.43;6.82;;;;;;;16.00;68.47;101662.03;673688;29;66296;-68
2021/08/12 01:41:36;;;;;;;6.90;6.30;;;;;;;15.98;68.39;101664.94;674113;29;46111;-66
2021/08/12 01:41:59;;;;;;;7.25;6.50;;;;;;;15.97;68.58;101666.00;671161;29;67392;-68
2021/08/12 01:42:22;;;;;;;6.97;6.38;;;;;;;15.95;68.57;101664.47;667646;29;92257;-68
2021/08/12 01:42:44;;;;;;;8.68;6.10;;;;;;;15.92;68.58;101654.81;670339;29;45304;-68
2021/08/12 01:43:11;;;;;;;7.03;6.32;;;;;;;15.94;68.78;101665.50;671644;29;93308;-67
2021/08/12 01:43:33;;;;;;;8.35;6.97;;;;;;;15.93;68.71;101661.94;671369;29;116042;-67
2021/08/12 01:44:00;;;;;;;7.25;6.55;;;;;;;15.91;69.00;101661.31;671169;29;136434;-66
2021/08/12 01:44:25;;;;;;;7.30;6.13;;;;;;;15.92;68.91;101662.97;676056;29;54099;-68
2021/08/12 01:44:47;;;;;;;8.90;6.88;;;;;;;15.91;69.16;101660.44;676603;29;90892;-67
2021/08/12 01:45:13;;;;;;;7.10;6.40;;;;;;;15.90;68.98;101665.06;674730;29;78563;-68
2021/08/12 01:45:34;;;;;;;7.25;6.63;;;;;;;15.91;69.08;101664.03;670828;29;92285;-68
2021/08/12 01:45:58;;;;;;;7.20;6.60;;;;;;;15.92;69.03;101670.31;669647;29;67534;-68
2021/08/12 01:46:24;;;;;;;7.38;6.75;;;;;;;15.91;69.15;101664.03;667101;29;62450;-67
2021/08/12 01:46:47;;;;;;;7.00;6.40;;;;;;;15.90;68.94;101667.78;666869;29;111997;-67
2021/08/12 01:47:10;;;;;;;7.45;6.47;;;;;;;15.87;69.07;101662.72;669785;29;109595;-68
2021/08/12 01:47:32;;;;;;;7.88;6.80;;;;;;;15.89;69.03;101663.34;671042;29;46258;-68
2021/08/12 01:47:55;;;;;;;7.43;6.70;;;;;;;15.90;69.10;101661.50;671889;29;68383;-68
2021/08/12 01:48:26;;;;;;;6.95;6.35;;;;;;;15.87;69.21;101662.72;669934;29;61402;-67
2021/08/12 01:48:49;;;;;;;7.10;6.50;;;;;;;15.89;69.09;101668.81;674452;29;999;-67
2021/08/12 01:49:13;;;;;;;7.65;6.60;;;;;;;15.88;69.04;101667.13;675860;29;14927;-68
2021/08/12 01:49:39;;;;;;;7.60;6.82;;;;;;;15.87;69.08;101665.44;674151;29;1340;-66
2021/08/12 01:50:02;;;;;;;7.43;6.63;;;;;;;15.87;69.09;101668.16;669717;29;139095;-67
2021/08/12 01:50:25;;;;;;;6.97;6.38;;;;;;;15.88;69.09;101664.41;669311;29;44121;-67
2021/08/12 01:50:47;;;;;;;6.90;6.35;;;;;;;15.87;69.18;101661.88;669003;29;69524;-67